Time;durP1;ratioP1;P1;durP2;ratioP2;P2;SDS_P1;SDS_P2;PMS_P1;PMS_P2;Temp;Humidity;BMP_temperature;BMP_pressure;BME280_temperature;BME280_humidity;BME280_pressure;Samples;Min_cycle;Max_cycle;Signal;HPM_P1;HPM_P2
2022/09/25 00:00:34;;;;;;;25.57;8.00;;;;;;;;;;5051344;28;20411;-60
2022/09/25 00:03:00;;;;;;;17.20;7.27;;;;;;;;;;5051342;28;20044;-60
2022/09/25 00:05:26;;;;;;;23.90;7.77;;;;;;;;;;5051843;28;20414;-61
2022/09/25 00:07:55;;;;;;;20.13;7.20;;;;;;;;;;5051950;28;20115;-60
2022/09/25 00:10:24;;;;;;;18.53;7.63;;;;;;;;;;5051829;28;20060;-60
2022/09/25 00:12:50;;;;;;;27.43;9.07;;;;;;;;;;5051112;28;20045;-60
2022/09/25 00:15:17;;;;;;;26.53;9.43;;;;;;;;;;5051397;28;20499;-61
2022/09/25 00:17:43;;;;;;;28.63;9.07;;;;;;;;;;5051477;28;20106;-60
2022/09/25 00:20:09;;;;;;;16.63;7.10;;;;;;;;;;5051703;28;20052;-61
2022/09/25 00:22:35;;;;;;;24.03;8.97;;;;;;;;;;5036471;28;20045;-60
2022/09/25 00:25:02;;;;;;;21.20;8.00;;;;;;;;;;5031386;28;20103;-60
2022/09/25 00:27:28;;;;;;;33.83;10.23;;;;;;;;;;5031749;28;20072;-61
2022/09/25 00:29:54;;;;;;;27.27;8.73;;;;;;;;;;5031390;28;20046;-61
2022/09/25 00:32:21;;;;;;;22.30;8.57;;;;;;;;;;5043973;28;20044;-61
2022/09/25 00:34:47;;;;;;;35.47;9.33;;;;;;;;;;5051704;28;20099;-61
2022/09/25 00:37:13;;;;;;;45.50;12.80;;;;;;;;;;5050821;28;20056;-60
2022/09/25 00:39:39;;;;;;;28.93;9.73;;;;;;;;;;5049887;28;20045;-60
2022/09/25 00:42:05;;;;;;;24.67;8.57;;;;;;;;;;5050927;28;20049;-60
2022/09/25 00:44:52;;;;;;;28.77;9.00;;;;;;;;;;5050655;28;20040;-60
2022/09/25 00:47:23;;;;;;;25.13;9.87;;;;;;;;;;5046375;28;20056;-61
2022/09/25 00:49:50;;;;;;;32.43;11.10;;;;;;;;;;5051201;28;20049;-61
2022/09/25 00:52:16;;;;;;;34.47;10.27;;;;;;;;;;5049812;28;20040;-60
2022/09/25 00:54:57;;;;;;;30.77;10.03;;;;;;;;;;5050479;28;20486;-60
2022/09/25 00:57:25;;;;;;;23.90;8.50;;;;;;;;;;5050614;28;20136;-60
2022/09/25 00:59:54;;;;;;;31.37;10.77;;;;;;;;;;5050494;28;20037;-61
2022/09/25 01:02:23;;;;;;;32.50;11.00;;;;;;;;;;5050316;28;20041;-60
2022/09/25 01:04:50;;;;;;;22.30;7.80;;;;;;;;;;5050085;28;20517;-60
2022/09/25 01:07:18;;;;;;;23.37;7.83;;;;;;;;;;5050505;28;20048;-61
2022/09/25 01:09:45;;;;;;;27.47;8.23;;;;;;;;;;5050082;28;20053;-61
2022/09/25 01:12:11;;;;;;;26.43;9.30;;;;;;;;;;5050309;28;20048;-61
2022/09/25 01:14:38;;;;;;;26.70;8.33;;;;;;;;;;5050496;28;20051;-61
2022/09/25 01:17:04;;;;;;;22.50;8.40;;;;;;;;;;5049767;28;20503;-60
2022/09/25 01:19:44;;;;;;;25.17;8.30;;;;;;;;;;5050472;28;20049;-60
2022/09/25 01:22:15;;;;;;;19.03;7.03;;;;;;;;;;5050212;28;20083;-61
2022/09/25 01:24:44;;;;;;;22.43;8.50;;;;;;;;;;5048086;28;20517;-61
2022/09/25 01:27:15;;;;;;;23.73;8.47;;;;;;;;;;5030361;28;20053;-60
2022/09/25 01:29:41;;;;;;;47.70;13.00;;;;;;;;;;5030493;28;20045;-61
2022/09/25 01:32:14;;;;;;;29.53;8.73;;;;;;;;;;5029989;28;20045;-61
2022/09/25 01:35:00;;;;;;;28.13;9.10;;;;;;;;;;5030147;28;20096;-61
2022/09/25 01:37:28;;;;;;;25.07;8.07;;;;;;;;;;5016468;28;20052;-60
2022/09/25 01:40:13;;;;;;;28.70;8.17;;;;;;;;;;5034901;28;20120;-61
2022/09/25 01:42:48;;;;;;;24.33;8.40;;;;;;;;;;5049974;28;20045;-61
2022/09/25 01:45:17;;;;;;;24.93;8.50;;;;;;;;;;5049907;28;20057;-60
2022/09/25 01:47:45;;;;;;;25.33;9.23;;;;;;;;;;5049486;28;20053;-61
2022/09/25 01:50:23;;;;;;;25.63;9.00;;;;;;;;;;5049510;28;20056;-60
2022/09/25 01:52:51;;;;;;;25.63;8.83;;;;;;;;;;5049759;28;20141;-61
2022/09/25 01:55:19;;;;;;;32.50;10.60;;;;;;;;;;5048606;28;20037;-61
2022/09/25 01:57:51;;;;;;;44.40;12.13;;;;;;;;;;5049181;28;20045;-61
2022/09/25 02:00:22;;;;;;;23.53;9.27;;;;;;;;;;5049222;28;20410;-60
2022/09/25 02:02:54;;;;;;;26.10;8.73;;;;;;;;;;5049768;28;20048;-60
2022/09/25 02:05:30;;;;;;;28.67;10.27;;;;;;;;;;5048876;28;20098;-60
2022/09/25 02:08:02;;;;;;;29.97;9.83;;;;;;;;;;5048484;28;20041;-60
2022/09/25 02:10:32;;;;;;;29.13;9.37;;;;;;;;;;5049430;28;20132;-60
2022/09/25 02:13:00;;;;;;;29.40;8.00;;;;;;;;;;5049123;28;20162;-61
2022/09/25 02:15:34;;;;;;;32.00;10.13;;;;;;;;;;5048995;28;20103;-61
2022/09/25 02:20:49;;;;;;;27.77;8.63;;;;;;;;;;5048927;28;21034;-61
2022/09/25 02:23:22;;;;;;;23.20;8.07;;;;;;;;;;5048476;28;20094;-61
2022/09/25 02:26:00;;;;;;;39.65;11.18;;;;;;;;;;5049551;28;20048;-61
2022/09/25 02:28:26;;;;;;;29.53;9.13;;;;;;;;;;5048729;28;20683;-61
2022/09/25 02:30:54;;;;;;;23.37;8.20;;;;;;;;;;5049219;28;20135;-61
2022/09/25 02:33:20;;;;;;;33.33;9.93;;;;;;;;;;5047438;28;20056;-61
2022/09/25 02:35:46;;;;;;;28.53;10.10;;;;;;;;;;5048694;28;20045;-61
2022/09/25 02:38:12;;;;;;;23.07;8.67;;;;;;;;;;5048528;28;20045;-62
2022/09/25 02:40:46;;;;;;;22.57;8.03;;;;;;;;;;5048690;28;20044;-61
2022/09/25 02:43:15;;;;;;;36.30;10.75;;;;;;;;;;5048399;28;20064;-61
2022/09/25 02:45:52;;;;;;;26.93;8.80;;;;;;;;;;5048790;28;20461;-61
2022/09/25 02:48:18;;;;;;;25.37;9.53;;;;;;;;;;5048511;28;20052;-61
2022/09/25 02:50:44;;;;;;;49.37;12.93;;;;;;;;;;5048141;28;20414;-61
2022/09/25 02:53:10;;;;;;;32.97;10.73;;;;;;;;;;5048363;28;20045;-61
2022/09/25 02:55:50;;;;;;;24.07;9.03;;;;;;;;;;5048521;28;20049;-61
2022/09/25 02:58:23;;;;;;;19.80;8.00;;;;;;;;;;5048491;28;20155;-61
2022/09/25 03:00:51;;;;;;;29.50;9.77;;;;;;;;;;5048638;28;20049;-61
2022/09/25 03:03:19;;;;;;;19.67;9.47;;;;;;;;;;5047802;28;20136;-62
2022/09/25 03:05:47;;;;;;;32.63;10.90;;;;;;;;;;5048894;28;20521;-60
2022/09/25 03:10:58;;;;;;;36.77;10.73;;;;;;;;;;5048509;28;20772;-61
2022/09/25 03:13:30;;;;;;;22.33;8.23;;;;;;;;;;5048337;28;20083;-61
2022/09/25 03:15:57;;;;;;;22.17;7.97;;;;;;;;;;5048443;28;20055;-61
2022/09/25 03:18:24;;;;;;;25.70;8.33;;;;;;;;;;5048086;28;20041;-61
2022/09/25 03:20:50;;;;;;;21.70;8.90;;;;;;;;;;5048072;28;20053;-61
2022/09/25 03:23:16;;;;;;;17.87;7.60;;;;;;;;;;5048213;28;20056;-62
2022/09/25 03:25:42;;;;;;;19.60;7.83;;;;;;;;;;5047851;28;20059;-61
2022/09/25 03:28:09;;;;;;;36.80;9.40;;;;;;;;;;5047334;28;20128;-61
2022/09/25 03:30:38;;;;;;;38.17;11.07;;;;;;;;;;5048374;28;20083;-61
2022/09/25 03:33:04;;;;;;;42.03;11.63;;;;;;;;;;5048259;28;20087;-61
2022/09/25 03:35:30;;;;;;;34.57;11.80;;;;;;;;;;5048172;28;20072;-61
2022/09/25 03:37:57;;;;;;;22.47;7.77;;;;;;;;;;5048173;28;20102;-62
2022/09/25 03:40:23;;;;;;;24.80;8.87;;;;;;;;;;5046480;28;20411;-62
2022/09/25 03:42:49;;;;;;;44.30;11.73;;;;;;;;;;5047895;28;20053;-61
2022/09/25 03:45:15;;;;;;;51.50;13.43;;;;;;;;;;5047896;28;20465;-61
2022/09/25 03:47:41;;;;;;;32.83;9.60;;;;;;;;;;5047245;28;20123;-61
2022/09/25 03:50:07;;;;;;;44.70;13.43;;;;;;;;;;5047659;28;20398;-61
2022/09/25 03:52:34;;;;;;;49.07;10.97;;;;;;;;;;5047768;28;20517;-61
2022/09/25 03:55:00;;;;;;;22.47;8.77;;;;;;;;;;5047620;28;20056;-61
2022/09/25 03:57:26;;;;;;;26.53;8.57;;;;;;;;;;5047858;28;20052;-61
2022/09/25 03:59:52;;;;;;;53.47;11.90;;;;;;;;;;5048090;28;20041;-61
2022/09/25 04:02:18;;;;;;;19.30;7.50;;;;;;;;;;5047082;28;20052;-61
2022/09/25 04:04:44;;;;;;;23.87;8.93;;;;;;;;;;5047757;28;20049;-61
2022/09/25 04:07:11;;;;;;;22.23;9.10;;;;;;;;;;5047748;28;20491;-61
2022/09/25 04:09:37;;;;;;;33.50;9.13;;;;;;;;;;5047673;28;20061;-62
2022/09/25 04:12:06;;;;;;;16.83;7.03;;;;;;;;;;5046905;28;20114;-61
2022/09/25 04:14:32;;;;;;;21.53;7.83;;;;;;;;;;5048380;28;20583;-61
2022/09/25 04:16:58;;;;;;;19.00;8.20;;;;;;;;;;5051548;28;20045;-61
2022/09/25 04:19:24;;;;;;;29.47;9.00;;;;;;;;;;5050856;28;20084;-61
2022/09/25 04:21:50;;;;;;;28.60;8.67;;;;;;;;;;5051230;28;20048;-61
2022/09/25 04:27:01;;;;;;;31.27;9.17;;;;;;;;;;5050977;28;20152;-62
2022/09/25 04:29:27;;;;;;;38.23;10.00;;;;;;;;;;5051438;28;20037;-61
2022/09/25 04:34:38;;;;;;;37.43;10.57;;;;;;;;;;5031476;28;20050;-62
2022/09/25 04:37:04;;;;;;;66.93;13.83;;;;;;;;;;5031097;28;20045;-61
2022/09/25 04:39:30;;;;;;;39.27;11.07;;;;;;;;;;5031050;28;20041;-61
2022/09/25 04:41:56;;;;;;;33.73;9.63;;;;;;;;;;5031586;28;20107;-61
2022/09/25 04:44:22;;;;;;;38.57;10.97;;;;;;;;;;5030751;28;20046;-62
2022/09/25 04:46:48;;;;;;;47.40;11.80;;;;;;;;;;5036842;28;20044;-62
2022/09/25 04:49:14;;;;;;;38.57;10.30;;;;;;;;;;5050888;28;20104;-62
2022/09/25 04:51:40;;;;;;;40.43;10.93;;;;;;;;;;5050927;28;20499;-62
2022/09/25 04:54:06;;;;;;;28.07;9.00;;;;;;;;;;5049989;28;20048;-62
2022/09/25 04:56:33;;;;;;;25.77;7.23;;;;;;;;;;5050607;28;20514;-62
2022/09/25 04:58:59;;;;;;;17.70;7.33;;;;;;;;;;5050886;28;20422;-61
2022/09/25 05:01:25;;;;;;;24.10;8.70;;;;;;;;;;5050059;28;20072;-61
2022/09/25 05:03:54;;;;;;;16.50;5.17;;;;;;;;;;5050032;28;20044;-62
2022/09/25 05:06:21;;;;;;;35.93;9.27;;;;;;;;;;5050298;28;20175;-62
2022/09/25 05:08:51;;;;;;;42.93;11.00;;;;;;;;;;5050248;28;20057;-62
2022/09/25 05:11:17;;;;;;;44.77;12.60;;;;;;;;;;5050642;28;20491;-61
2022/09/25 05:13:45;;;;;;;31.10;10.50;;;;;;;;;;5049622;28;20091;-62
2022/09/25 05:16:11;;;;;;;34.77;12.30;;;;;;;;;;5048732;28;20060;-62
2022/09/25 05:18:37;;;;;;;49.77;13.97;;;;;;;;;;5041866;28;20045;-61
2022/09/25 05:21:04;;;;;;;31.00;9.23;;;;;;;;;;5050448;28;20124;-61
2022/09/25 05:23:30;;;;;;;30.87;9.73;;;;;;;;;;5050281;28;20045;-62
2022/09/25 05:25:59;;;;;;;24.77;8.03;;;;;;;;;;5042916;28;20048;-61
2022/09/25 05:28:25;;;;;;;21.07;7.77;;;;;;;;;;5039160;28;20045;-61
2022/09/25 05:30:51;;;;;;;36.27;10.50;;;;;;;;;;5038633;28;20038;-61
2022/09/25 05:33:18;;;;;;;51.10;13.40;;;;;;;;;;5040624;28;20555;-62
2022/09/25 05:35:44;;;;;;;30.53;10.37;;;;;;;;;;5039909;28;20053;-61
2022/09/25 05:38:11;;;;;;;48.43;13.53;;;;;;;;;;5040526;28;20522;-62
2022/09/25 05:40:38;;;;;;;43.33;12.33;;;;;;;;;;5039507;28;20482;-62
2022/09/25 05:43:04;;;;;;;24.83;9.07;;;;;;;;;;5039517;28;20514;-62
2022/09/25 05:45:32;;;;;;;22.13;9.57;;;;;;;;;;5039346;28;20491;-62
2022/09/25 05:48:05;;;;;;;18.93;8.00;;;;;;;;;;5037491;28;20052;-62
2022/09/25 05:50:32;;;;;;;28.47;8.10;;;;;;;;;;5040321;28;20048;-62
2022/09/25 05:52:58;;;;;;;24.80;8.80;;;;;;;;;;5038546;28;20040;-62
2022/09/25 05:55:25;;;;;;;37.67;9.23;;;;;;;;;;5033961;28;20041;-62
2022/09/25 05:57:51;;;;;;;32.53;8.57;;;;;;;;;;5030082;28;20096;-62
2022/09/25 06:00:17;;;;;;;46.57;13.17;;;;;;;;;;5030977;28;20063;-63
2022/09/25 06:02:44;;;;;;;19.50;6.97;;;;;;;;;;5048948;28;20076;-63
2022/09/25 06:05:10;;;;;;;31.40;9.80;;;;;;;;;;5049250;28;20466;-63
2022/09/25 06:07:36;;;;;;;17.60;6.50;;;;;;;;;;5048122;28;20133;-63
2022/09/25 06:10:03;;;;;;;19.30;6.90;;;;;;;;;;5048957;28;20044;-63
2022/09/25 06:12:29;;;;;;;15.77;6.87;;;;;;;;;;5049663;28;20048;-63
2022/09/25 06:14:55;;;;;;;20.83;8.07;;;;;;;;;;5048674;28;20041;-63
2022/09/25 06:17:21;;;;;;;18.43;6.87;;;;;;;;;;5048952;28;20068;-63
2022/09/25 06:19:48;;;;;;;27.23;7.37;;;;;;;;;;5048605;28;20495;-63
2022/09/25 06:22:14;;;;;;;23.33;7.83;;;;;;;;;;5048858;28;20045;-63
2022/09/25 06:24:40;;;;;;;16.00;6.53;;;;;;;;;;5048661;28;20049;-63
2022/09/25 06:27:06;;;;;;;12.07;6.43;;;;;;;;;;5048625;28;20045;-63
2022/09/25 06:29:33;;;;;;;28.60;7.80;;;;;;;;;;5035796;28;20053;-63
2022/09/25 06:31:59;;;;;;;16.50;5.50;;;;;;;;;;5044228;28;20544;-63
2022/09/25 06:34:27;;;;;;;20.87;6.43;;;;;;;;;;5048705;28;20076;-63
2022/09/25 06:36:53;;;;;;;16.37;5.30;;;;;;;;;;5047789;28;20052;-63
2022/09/25 06:39:19;;;;;;;13.97;4.77;;;;;;;;;;5048298;28;20052;-63
2022/09/25 06:41:45;;;;;;;13.23;4.80;;;;;;;;;;5045904;28;20119;-63
2022/09/25 06:44:11;;;;;;;10.40;4.53;;;;;;;;;;5047663;28;20536;-63
2022/09/25 06:46:37;;;;;;;6.83;3.80;;;;;;;;;;5048228;28;20037;-63
2022/09/25 06:49:03;;;;;;;10.83;4.93;;;;;;;;;;5048275;28;20051;-63
2022/09/25 06:51:33;;;;;;;11.73;4.43;;;;;;;;;;5048692;28;20044;-63
2022/09/25 06:53:59;;;;;;;14.80;4.47;;;;;;;;;;5048414;28;20514;-63
2022/09/25 06:56:25;;;;;;;11.13;5.83;;;;;;;;;;5048434;28;20045;-63
2022/09/25 06:58:51;;;;;;;8.13;3.90;;;;;;;;;;5048329;28;20052;-63
2022/09/25 07:01:17;;;;;;;13.93;6.40;;;;;;;;;;5047176;28;20044;-63
2022/09/25 07:03:43;;;;;;;13.23;4.20;;;;;;;;;;5047350;28;20044;-63
2022/09/25 07:06:11;;;;;;;15.83;3.53;;;;;;;;;;5047043;28;20048;-63
2022/09/25 07:08:37;;;;;;;12.63;4.57;;;;;;;;;;5048079;28;20103;-64
2022/09/25 07:11:03;;;;;;;9.03;3.90;;;;;;;;;;5035704;28;20171;-63
2022/09/25 07:13:30;;;;;;;11.07;5.03;;;;;;;;;;5028486;28;20400;-63
2022/09/25 07:16:04;;;;;;;11.67;4.83;;;;;;;;;;5027680;28;20128;-63
2022/09/25 07:18:30;;;;;;;9.88;4.85;;;;;;;;;;5028562;28;20059;-63
2022/09/25 07:21:05;;;;;;;18.40;6.50;;;;;;;;;;5027792;28;20041;-63
2022/09/25 07:23:32;;;;;;;11.87;3.47;;;;;;;;;;5040265;28;20052;-63
2022/09/25 07:26:21;;;;;;;8.47;3.70;;;;;;;;;;5046797;28;20430;-63
2022/09/25 07:28:48;;;;;;;8.50;4.17;;;;;;;;;;5048036;28;20135;-64
2022/09/25 07:31:18;;;;;;;8.10;3.50;;;;;;;;;;5047477;28;20041;-63
2022/09/25 07:33:45;;;;;;;9.57;3.33;;;;;;;;;;5046852;28;20047;-63
2022/09/25 07:36:11;;;;;;;8.93;2.60;;;;;;;;;;5048138;28;20041;-64
2022/09/25 07:38:38;;;;;;;10.37;2.60;;;;;;;;;;5048045;28;20499;-63
2022/09/25 07:41:05;;;;;;;8.67;2.70;;;;;;;;;;5048362;28;20037;-63
2022/09/25 07:43:31;;;;;;;9.83;2.83;;;;;;;;;;5046420;28;20049;-64
2022/09/25 07:45:58;;;;;;;9.67;3.20;;;;;;;;;;5047577;28;20061;-63
2022/09/25 07:48:24;;;;;;;10.90;2.73;;;;;;;;;;5047708;28;20045;-64
2022/09/25 07:50:50;;;;;;;13.47;3.03;;;;;;;;;;5051792;28;20048;-63
2022/09/25 07:53:19;;;;;;;9.57;3.07;;;;;;;;;;5051577;28;20102;-63
2022/09/25 07:55:46;;;;;;;6.60;2.40;;;;;;;;;;5051318;28;20094;-63
2022/09/25 07:58:12;;;;;;;10.10;2.47;;;;;;;;;;5051859;28;20509;-63
2022/09/25 08:00:39;;;;;;;8.80;2.27;;;;;;;;;;5051777;28;20088;-63
2022/09/25 08:03:06;;;;;;;10.17;2.87;;;;;;;;;;5051610;28;20045;-63
2022/09/25 08:05:32;;;;;;;13.00;2.50;;;;;;;;;;5050991;28;20098;-63
2022/09/25 08:07:58;;;;;;;6.70;1.90;;;;;;;;;;5050492;28;20456;-63
2022/09/25 08:10:24;;;;;;;6.73;1.70;;;;;;;;;;5051097;28;20049;-63
2022/09/25 08:12:50;;;;;;;6.30;1.73;;;;;;;;;;5045866;28;20088;-63
2022/09/25 08:15:17;;;;;;;6.10;1.57;;;;;;;;;;5046696;28;20519;-63
2022/09/25 08:17:43;;;;;;;6.97;1.60;;;;;;;;;;5051306;28;20071;-63
2022/09/25 08:20:09;;;;;;;13.10;2.47;;;;;;;;;;5051544;28;20037;-63
2022/09/25 08:22:35;;;;;;;5.57;1.37;;;;;;;;;;5050768;28;20052;-63
2022/09/25 08:25:02;;;;;;;11.53;2.40;;;;;;;;;;5050464;28;20060;-63
2022/09/25 08:27:28;;;;;;;5.93;1.63;;;;;;;;;;5050738;28;20041;-63
2022/09/25 08:29:54;;;;;;;7.87;1.57;;;;;;;;;;5050879;28;20127;-63
2022/09/25 08:32:20;;;;;;;9.30;1.20;;;;;;;;;;5051205;28;20037;-63
2022/09/25 08:34:47;;;;;;;5.63;1.23;;;;;;;;;;5051043;28;20068;-63
2022/09/25 08:37:14;;;;;;;5.17;1.43;;;;;;;;;;5050671;28;20407;-63
2022/09/25 08:39:40;;;;;;;6.73;1.50;;;;;;;;;;5051090;28;20071;-63
2022/09/25 08:42:13;;;;;;;6.17;1.70;;;;;;;;;;5050648;28;20045;-63
2022/09/25 08:44:40;;;;;;;7.07;1.40;;;;;;;;;;5050772;28;20049;-63
2022/09/25 08:50:15;;;;;;;14.07;1.77;;;;;;;;;;5050827;28;20151;-63
2022/09/25 08:52:43;;;;;;;5.93;1.00;;;;;;;;;;5050548;28;20053;-61
2022/09/25 08:56:13;;;;;;;7.30;1.20;;;;;;;;;;5050546;28;20053;-61
2022/09/25 08:58:15;;;;;;;7.07;0.98;;;;;;;;;;5034952;28;20183;-61
2022/09/25 09:00:42;;;;;;;5.50;1.10;;;;;;;;;;5049891;28;20049;-61
2022/09/25 09:03:10;;;;;;;8.43;0.90;;;;;;;;;;5050331;28;20045;-61
2022/09/25 09:05:39;;;;;;;9.30;1.10;;;;;;;;;;5050937;28;20140;-61
2022/09/25 09:08:08;;;;;;;7.20;1.27;;;;;;;;;;5050601;28;20053;-61
2022/09/25 09:10:34;;;;;;;3.73;0.60;;;;;;;;;;5050465;28;20454;-61
2022/09/25 09:13:04;;;;;;;4.70;1.00;;;;;;;;;;5049846;28;20036;-61
2022/09/25 09:15:36;;;;;;;4.20;0.80;;;;;;;;;;5040790;28;20041;-62
2022/09/25 09:18:08;;;;;;;2.63;0.70;;;;;;;;;;5030239;28;20057;-63
2022/09/25 09:20:42;;;;;;;4.55;1.00;;;;;;;;;;5029950;28;20042;-63
2022/09/25 09:23:10;;;;;;;6.87;0.93;;;;;;;;;;5032968;28;20068;-63
2022/09/25 09:25:52;;;;;;;8.33;0.87;;;;;;;;;;5050404;28;20052;-62
2022/09/25 09:28:21;;;;;;;7.00;1.00;;;;;;;;;;5050186;28;20128;-62
2022/09/25 09:31:13;;;;;;;4.03;0.53;;;;;;;;;;5048623;28;20045;-62
2022/09/25 09:33:59;;;;;;;5.10;1.03;;;;;;;;;;5049040;28;20194;-62
2022/09/25 09:36:28;;;;;;;6.07;0.90;;;;;;;;;;5049585;28;20143;-63
2022/09/25 09:39:19;;;;;;;5.40;0.70;;;;;;;;;;5049157;28;20048;-62
2022/09/25 09:42:04;;;;;;;4.57;0.83;;;;;;;;;;5049396;28;20049;-62
2022/09/25 09:44:32;;;;;;;3.93;1.23;;;;;;;;;;5030021;28;20148;-61
2022/09/25 09:47:17;;;;;;;3.77;0.93;;;;;;;;;;5029161;28;20045;-61
2022/09/25 09:49:46;;;;;;;5.73;0.80;;;;;;;;;;5029735;28;20056;-61
2022/09/25 09:52:16;;;;;;;5.70;0.73;;;;;;;;;;5033315;28;20052;-61
2022/09/25 09:54:50;;;;;;;4.90;2.17;;;;;;;;;;5048636;28;20053;-61
2022/09/25 09:57:26;;;;;;;4.37;1.00;;;;;;;;;;5048583;28;20044;-62
2022/09/25 09:59:55;;;;;;;5.33;0.90;;;;;;;;;;5049293;28;20049;-61
2022/09/25 10:02:43;;;;;;;8.23;1.00;;;;;;;;;;5048829;28;20495;-61
2022/09/25 10:05:16;;;;;;;36.00;2.13;;;;;;;;;;5048599;28;20074;-63
2022/09/25 10:07:43;;;;;;;6.47;1.00;;;;;;;;;;5048984;28;20052;-63
2022/09/25 10:10:13;;;;;;;10.37;1.20;;;;;;;;;;5049131;28;20095;-63
2022/09/25 10:12:39;;;;;;;7.60;1.60;;;;;;;;;;5048357;28;20464;-63
2022/09/25 10:15:13;;;;;;;7.50;1.00;;;;;;;;;;5049075;28;20052;-62
2022/09/25 10:17:39;;;;;;;17.10;3.77;;;;;;;;;;5048253;28;20041;-62
2022/09/25 10:20:15;;;;;;;11.60;2.10;;;;;;;;;;5048580;28;20057;-62
2022/09/25 10:22:43;;;;;;;5.30;1.10;;;;;;;;;;5044238;28;20040;-63
2022/09/25 10:25:09;;;;;;;8.13;1.13;;;;;;;;;;5043358;28;20051;-62
2022/09/25 10:27:47;;;;;;;7.07;1.40;;;;;;;;;;5030829;28;20084;-63
2022/09/25 10:30:19;;;;;;;5.83;1.23;;;;;;;;;;5047734;28;20490;-62
2022/09/25 10:32:52;;;;;;;3.67;1.03;;;;;;;;;;5043399;28;20526;-62
2022/09/25 10:35:24;;;;;;;4.40;1.00;;;;;;;;;;5034955;28;20042;-62
2022/09/25 10:37:51;;;;;;;5.57;1.27;;;;;;;;;;5038488;28;20124;-62
2022/09/25 10:40:25;;;;;;;5.27;1.03;;;;;;;;;;5036860;28;20056;-63
2022/09/25 10:43:10;;;;;;;2.20;0.90;;;;;;;;;;5046645;28;20045;-63
2022/09/25 10:45:39;;;;;;;5.00;1.00;;;;;;;;;;5048876;28;20079;-63
2022/09/25 10:51:09;;;;;;;3.77;0.63;;;;;;;;;;5048016;28;20400;-63
2022/09/25 10:53:35;;;;;;;2.43;0.40;;;;;;;;;;5048422;28;20045;-64
2022/09/25 10:56:03;;;;;;;4.60;0.93;;;;;;;;;;5047757;28;20443;-64
2022/09/25 10:58:39;;;;;;;3.53;0.70;;;;;;;;;;5048565;28;20041;-64
2022/09/25 11:01:07;;;;;;;5.23;0.73;;;;;;;;;;5028889;28;20042;-64
2022/09/25 11:03:39;;;;;;;3.03;0.60;;;;;;;;;;5029321;28;20044;-64
2022/09/25 11:06:19;;;;;;;3.63;1.13;;;;;;;;;;5038534;28;20220;-64
2022/09/25 11:08:45;;;;;;;7.80;2.07;;;;;;;;;;5046787;28;20502;-63
2022/09/25 11:11:12;;;;;;;5.07;1.10;;;;;;;;;;5038723;28;20106;-63
2022/09/25 11:13:46;;;;;;;5.13;1.00;;;;;;;;;;5041845;28;20046;-63
2022/09/25 11:16:12;;;;;;;6.78;1.27;;;;;;;;;;5042298;28;20054;-64
2022/09/25 11:18:40;;;;;;;3.67;0.90;;;;;;;;;;5027752;28;20499;-63
2022/09/25 11:21:16;;;;;;;8.10;1.33;;;;;;;;;;5040448;28;20049;-63
2022/09/25 11:24:01;;;;;;;8.93;1.63;;;;;;;;;;5034930;28;20121;-63
2022/09/25 11:26:36;;;;;;;7.60;1.17;;;;;;;;;;5028112;28;20049;-63
2022/09/25 11:29:10;;;;;;;6.43;1.80;;;;;;;;;;5031369;28;20053;-63
2022/09/25 11:31:39;;;;;;;3.60;1.10;;;;;;;;;;5046879;28;20045;-63
2022/09/25 11:34:06;;;;;;;2.93;0.60;;;;;;;;;;5041868;28;20054;-64
2022/09/25 11:36:34;;;;;;;3.93;0.70;;;;;;;;;;5037749;28;20620;-63
2022/09/25 11:42:05;;;;;;;4.30;0.80;;;;;;;;;;5028189;28;20456;-63
2022/09/25 11:44:41;;;;;;;4.70;1.33;;;;;;;;;;5028290;28;20049;-63
2022/09/25 11:47:27;;;;;;;4.90;0.60;;;;;;;;;;5027999;28;20050;-63
2022/09/25 11:49:53;;;;;;;3.23;0.70;;;;;;;;;;5027789;28;20068;-63
2022/09/25 11:52:36;;;;;;;3.30;0.70;;;;;;;;;;5047398;28;20045;-63
2022/09/25 11:55:14;;;;;;;2.30;0.60;;;;;;;;;;5047631;28;20526;-62
2022/09/25 11:57:48;;;;;;;1.63;0.50;;;;;;;;;;5047854;28;20566;-62
2022/09/25 12:00:19;;;;;;;3.00;0.67;;;;;;;;;;5046928;28;20527;-62
2022/09/25 12:02:45;;;;;;;3.87;0.77;;;;;;;;;;5047407;28;20125;-62
2022/09/25 12:05:21;;;;;;;4.57;0.80;;;;;;;;;;5047641;28;20124;-60
2022/09/25 12:08:00;;;;;;;3.93;0.60;;;;;;;;;;5045328;28;20052;-60
2022/09/25 12:10:29;;;;;;;3.13;0.70;;;;;;;;;;5046369;28;20145;-61
2022/09/25 12:13:01;;;;;;;4.60;0.90;;;;;;;;;;5046274;28;20056;-62
2022/09/25 12:15:30;;;;;;;3.13;0.53;;;;;;;;;;5045699;28;20059;-62
2022/09/25 12:17:59;;;;;;;4.77;0.80;;;;;;;;;;5045311;28;20164;-62
2022/09/25 12:20:25;;;;;;;4.37;0.70;;;;;;;;;;5045283;28;20438;-62
2022/09/25 12:22:54;;;;;;;1.73;0.70;;;;;;;;;;5045460;28;20053;-62
2022/09/25 12:25:39;;;;;;;1.90;0.60;;;;;;;;;;5044007;28;20423;-61
2022/09/25 12:28:07;;;;;;;2.57;0.70;;;;;;;;;;5045185;28;20052;-62
2022/09/25 12:30:55;;;;;;;3.80;0.83;;;;;;;;;;5045389;28;20053;-61
2022/09/25 12:33:38;;;;;;;7.17;1.10;;;;;;;;;;5030858;28;20044;-63
2022/09/25 12:36:06;;;;;;;5.43;1.03;;;;;;;;;;5040781;28;20479;-63
2022/09/25 12:38:59;;;;;;;35.47;2.33;;;;;;;;;;5041755;28;20526;-64
2022/09/25 12:41:29;;;;;;;141.20;7.83;;;;;;;;;;5016965;28;20045;-64
2022/09/25 12:44:09;;;;;;;5.43;1.37;;;;;;;;;;5043486;28;20064;-63
2022/09/25 12:46:47;;;;;;;5.50;1.50;;;;;;;;;;5040016;28;20159;-64
2022/09/25 12:49:17;;;;;;;4.20;0.80;;;;;;;;;;5046323;28;20038;-63
2022/09/25 12:51:48;;;;;;;4.00;1.03;;;;;;;;;;5050477;28;20499;-63
2022/09/25 12:54:27;;;;;;;7.30;1.60;;;;;;;;;;5050426;28;20075;-63
2022/09/25 12:56:57;;;;;;;3.90;1.30;;;;;;;;;;5050473;28;20122;-64
2022/09/25 12:59:42;;;;;;;6.10;1.03;;;;;;;;;;5050629;28;20689;-64
2022/09/25 13:02:27;;;;;;;3.33;0.80;;;;;;;;;;5037788;28;20584;-65
2022/09/25 13:04:57;;;;;;;3.43;1.10;;;;;;;;;;5029931;28;20106;-64
2022/09/25 13:07:26;;;;;;;5.60;0.90;;;;;;;;;;5044271;28;20521;-64
2022/09/25 13:09:52;;;;;;;4.97;1.00;;;;;;;;;;5049887;28;20076;-64
2022/09/25 13:12:32;;;;;;;4.10;0.80;;;;;;;;;;5049397;28;20060;-64
2022/09/25 13:15:07;;;;;;;5.77;1.30;;;;;;;;;;5049857;28;20136;-65
2022/09/25 13:17:33;;;;;;;13.37;3.13;;;;;;;;;;5034434;28;20046;-64
2022/09/25 13:20:19;;;;;;;6.87;2.73;;;;;;;;;;5030130;28;20050;-64
2022/09/25 13:22:45;;;;;;;7.30;1.93;;;;;;;;;;5030173;28;20458;-64
2022/09/25 13:25:15;;;;;;;13.37;2.63;;;;;;;;;;5029732;28;20045;-64
2022/09/25 13:27:44;;;;;;;5.10;1.70;;;;;;;;;;5029517;28;20103;-64
2022/09/25 13:30:27;;;;;;;3.97;1.50;;;;;;;;;;5049117;28;20471;-64
2022/09/25 13:32:54;;;;;;;7.35;1.90;;;;;;;;;;5048431;28;20094;-64
2022/09/25 13:35:21;;;;;;;4.00;1.13;;;;;;;;;;5049171;28;20463;-63
2022/09/25 13:37:49;;;;;;;8.50;1.67;;;;;;;;;;5050003;28;20427;-64
2022/09/25 13:43:21;;;;;;;4.07;0.90;;;;;;;;;;5049267;28;20573;-64
2022/09/25 13:45:47;;;;;;;6.38;1.30;;;;;;;;;;5049813;28;20049;-64
2022/09/25 13:48:35;;;;;;;3.73;1.13;;;;;;;;;;5048758;28;20174;-64
2022/09/25 13:51:19;;;;;;;4.33;0.90;;;;;;;;;;5049721;28;20059;-64
2022/09/25 13:53:51;;;;;;;4.20;1.40;;;;;;;;;;5049460;28;20037;-64
2022/09/25 13:56:22;;;;;;;2.23;1.00;;;;;;;;;;5048902;28;20045;-64
2022/09/25 13:58:58;;;;;;;2.83;0.97;;;;;;;;;;5048908;28;20388;-64
2022/09/25 14:01:32;;;;;;;3.90;0.90;;;;;;;;;;5049201;28;20045;-64
2022/09/25 14:03:58;;;;;;;4.63;0.80;;;;;;;;;;5049744;28;20144;-64
2022/09/25 14:06:31;;;;;;;6.03;1.30;;;;;;;;;;5048533;28;20404;-64
2022/09/25 14:08:58;;;;;;;3.60;0.97;;;;;;;;;;5049079;28;20067;-64
2022/09/25 14:11:27;;;;;;;4.37;0.90;;;;;;;;;;5048994;28;20110;-64
2022/09/25 14:13:55;;;;;;;3.83;1.27;;;;;;;;;;5048301;28;20075;-64
2022/09/25 14:16:21;;;;;;;2.77;0.60;;;;;;;;;;5047944;28;20052;-64
2022/09/25 14:18:48;;;;;;;3.53;0.83;;;;;;;;;;5048296;28;20570;-64
2022/09/25 14:21:15;;;;;;;3.63;0.70;;;;;;;;;;5049189;28;20387;-64
2022/09/25 14:23:48;;;;;;;2.17;0.70;;;;;;;;;;5049116;28;20136;-64
2022/09/25 14:26:24;;;;;;;3.93;1.50;;;;;;;;;;5047881;28;20502;-64
2022/09/25 14:28:51;;;;;;;4.27;1.20;;;;;;;;;;5048347;28;20059;-64
2022/09/25 14:31:36;;;;;;;6.43;1.00;;;;;;;;;;5049042;28;20049;-64
2022/09/25 14:34:20;;;;;;;4.83;0.80;;;;;;;;;;5048787;28;20049;-64
2022/09/25 14:36:59;;;;;;;2.03;0.80;;;;;;;;;;5048410;28;20127;-64
2022/09/25 14:39:34;;;;;;;2.10;0.60;;;;;;;;;;5048469;28;20128;-64
2022/09/25 14:42:05;;;;;;;3.53;0.70;;;;;;;;;;5048326;28;20467;-64
2022/09/25 14:44:37;;;;;;;2.90;0.70;;;;;;;;;;5048479;28;20106;-64
2022/09/25 14:47:04;;;;;;;2.33;0.50;;;;;;;;;;5048250;28;20475;-64
2022/09/25 14:49:33;;;;;;;2.30;0.53;;;;;;;;;;5048721;28;20252;-64
2022/09/25 14:52:04;;;;;;;2.33;0.60;;;;;;;;;;5048077;28;20468;-63
2022/09/25 14:54:35;;;;;;;4.70;0.67;;;;;;;;;;5048145;28;20507;-63
2022/09/25 14:57:04;;;;;;;3.03;0.67;;;;;;;;;;5048119;28;20562;-64
2022/09/25 14:59:33;;;;;;;4.07;0.70;;;;;;;;;;5046061;28;20037;-63
2022/09/25 15:02:01;;;;;;;3.60;0.80;;;;;;;;;;5047334;28;20447;-64
2022/09/25 15:04:32;;;;;;;3.37;0.77;;;;;;;;;;5047472;28;20040;-64
2022/09/25 15:07:00;;;;;;;5.50;0.60;;;;;;;;;;5048304;28;20048;-63
2022/09/25 15:09:28;;;;;;;4.87;0.67;;;;;;;;;;5047816;28;20103;-63
2022/09/25 15:11:54;;;;;;;4.03;0.70;;;;;;;;;;5047957;28;20041;-63